Time;durP1;ratioP1;P1;durP2;ratioP2;P2;SDS_P1;SDS_P2;PMS_P1;PMS_P2;Temp;Humidity;BMP_temperature;BMP_pressure;BME280_temperature;BME280_humidity;BME280_pressure;Samples;Min_cycle;Max_cycle;Signal;HPM_P1;HPM_P2
2023/10/02 00:02:07;;;;;;;18.20;8.00;;;11.80;99.90;;;;;;4971783;28;20447;-66
2023/10/02 00:04:35;;;;;;;16.50;8.00;;;11.80;99.90;;;;;;4971722;28;20452;-68
2023/10/02 00:07:08;;;;;;;18.70;7.93;;;11.70;99.90;;;;;;4971018;28;20541;-68
2023/10/02 00:09:37;;;;;;;17.80;8.17;;;11.60;99.90;;;;;;4972177;28;20547;-67
2023/10/02 00:12:11;;;;;;;18.23;8.40;;;11.50;99.90;;;;;;4971979;28;20481;-67
2023/10/02 00:14:41;;;;;;;18.37;7.80;;;11.40;99.90;;;;;;4971178;28;20467;-67
2023/10/02 00:17:15;;;;;;;19.03;8.20;;;11.40;99.90;;;;;;4972035;28;20465;-68
2023/10/02 00:19:45;;;;;;;19.43;8.53;;;11.40;99.90;;;;;;4972203;28;20826;-68
2023/10/02 00:24:58;;;;;;;17.37;8.13;;;11.50;99.90;;;;;;4970274;28;20479;-67
2023/10/02 00:27:28;;;;;;;14.90;8.60;;;11.50;99.90;;;;;;4970964;28;20462;-68
2023/10/02 00:29:58;;;;;;;18.17;9.10;;;11.50;99.90;;;;;;4971669;28;20917;-68
2023/10/02 00:32:29;;;;;;;19.23;8.07;;;11.40;99.90;;;;;;4971126;28;20490;-69
2023/10/02 00:35:00;;;;;;;15.47;7.50;;;11.40;99.90;;;;;;4970897;28;20482;-68
2023/10/02 00:37:44;;;;;;;15.17;8.10;;;11.50;99.90;;;;;;4967999;28;20548;-68
2023/10/02 00:40:15;;;;;;;16.40;8.20;;;11.50;99.90;;;;;;4971057;28;20452;-68
2023/10/02 00:42:42;;;;;;;19.37;8.57;;;11.40;99.90;;;;;;4971650;28;20869;-68
2023/10/02 00:45:10;;;;;;;18.00;8.90;;;11.40;99.90;;;;;;4971247;28;20474;-68
2023/10/02 00:47:41;;;;;;;19.83;9.30;;;11.40;99.90;;;;;;4970297;28;20509;-68
2023/10/02 00:50:12;;;;;;;15.40;7.87;;;11.50;99.90;;;;;;4970907;28;21044;-68
2023/10/02 00:52:43;;;;;;;15.90;7.83;;;11.60;99.90;;;;;;4970889;28;20489;-68
2023/10/02 00:55:14;;;;;;;17.07;7.60;;;11.60;99.90;;;;;;4969956;28;21005;-68
2023/10/02 00:57:45;;;;;;;18.23;8.87;;;11.60;99.90;;;;;;4970790;28;20574;-67
2023/10/02 01:00:19;;;;;;;16.10;7.80;;;11.40;99.90;;;;;;4967155;28;20461;-68
2023/10/02 01:02:48;;;;;;;15.60;7.20;;;11.40;99.90;;;;;;4970788;28;20968;-68
2023/10/02 01:05:21;;;;;;;16.67;7.27;;;11.50;99.90;;;;;;4970934;28;20854;-69
2023/10/02 01:07:55;;;;;;;16.43;7.10;;;11.50;99.90;;;;;;4970825;28;20466;-69
2023/10/02 01:10:29;;;;;;;18.37;7.70;;;11.50;99.90;;;;;;4966599;28;21078;-68
2023/10/02 01:13:02;;;;;;;19.53;8.10;;;11.50;99.90;;;;;;4970622;28;20494;-68
2023/10/02 01:15:30;;;;;;;16.43;7.43;;;11.50;99.90;;;;;;4970636;28;20549;-68
2023/10/02 01:18:22;;;;;;;17.00;8.30;;;11.40;99.90;;;;;;4965571;28;20455;-69
2023/10/02 01:20:53;;;;;;;15.13;6.63;;;11.40;99.90;;;;;;4970420;28;20494;-68
2023/10/02 01:23:25;;;;;;;17.63;7.00;;;11.30;99.90;;;;;;4971141;28;20799;-69
2023/10/02 01:25:57;;;;;;;17.83;7.37;;;11.30;99.90;;;;;;4970284;28;20471;-68
2023/10/02 01:28:29;;;;;;;16.87;7.10;;;11.40;99.90;;;;;;4970943;28;20451;-68
2023/10/02 01:31:01;;;;;;;17.83;8.10;;;11.50;99.90;;;;;;4970752;28;20975;-68
2023/10/02 01:33:32;;;;;;;20.07;9.13;;;11.50;99.90;;;;;;4970738;28;20491;-68
2023/10/02 01:36:03;;;;;;;15.17;7.43;;;11.50;99.90;;;;;;4969846;28;20485;-68
2023/10/02 01:38:33;;;;;;;20.73;8.03;;;11.40;99.90;;;;;;4970243;28;21024;-68
2023/10/02 01:41:04;;;;;;;17.17;8.07;;;11.40;99.90;;;;;;4969888;28;20454;-69
2023/10/02 01:43:39;;;;;;;19.33;8.27;;;11.40;99.90;;;;;;4970233;28;20962;-69
2023/10/02 01:46:08;;;;;;;17.23;7.73;;;11.50;99.90;;;;;;4969556;28;20506;-68
2023/10/02 01:48:48;;;;;;;18.10;7.70;;;11.50;99.90;;;;;;4969279;28;20453;-68
2023/10/02 01:51:25;;;;;;;23.00;9.57;;;11.70;99.90;;;;;;4969124;28;21126;-68
2023/10/02 01:53:56;;;;;;;15.43;7.27;;;11.80;99.90;;;;;;4969313;28;20509;-69
2023/10/02 01:56:27;;;;;;;20.53;8.63;;;11.90;99.90;;;;;;4969370;28;21032;-68
2023/10/02 01:59:08;;;;;;;19.13;8.10;;;11.80;99.90;;;;;;4969908;28;20902;-68
2023/10/02 02:01:46;;;;;;;20.17;8.90;;;11.80;99.90;;;;;;4969386;28;20486;-67
2023/10/02 02:04:15;;;;;;;16.90;8.17;;;11.80;99.90;;;;;;4968726;28;20541;-68
2023/10/02 02:06:52;;;;;;;19.70;9.10;;;11.70;99.90;;;;;;4969779;28;20474;-68
2023/10/02 02:09:23;;;;;;;16.33;8.20;;;11.70;99.90;;;;;;4970068;28;20976;-69
2023/10/02 02:12:07;;;;;;;22.80;8.97;;;11.60;99.90;;;;;;4970230;28;20507;-68
2023/10/02 02:14:41;;;;;;;20.53;8.33;;;11.60;99.90;;;;;;4969445;28;20491;-68
2023/10/02 02:17:11;;;;;;;19.47;8.50;;;11.50;99.90;;;;;;4968608;28;20454;-68
2023/10/02 02:19:48;;;;;;;17.67;8.80;;;11.60;99.90;;;;;;4969999;28;20861;-68
2023/10/02 02:22:17;;;;;;;18.17;8.10;;;11.70;99.90;;;;;;4969966;28;20869;-68
2023/10/02 02:24:46;;;;;;;18.77;8.73;;;11.60;99.90;;;;;;4969582;28;20532;-68
2023/10/02 02:27:17;;;;;;;16.23;9.00;;;11.60;99.90;;;;;;4969850;28;20484;-68
2023/10/02 02:29:46;;;;;;;18.37;8.70;;;11.60;99.90;;;;;;4970156;28;20475;-69
2023/10/02 02:32:19;;;;;;;16.97;8.17;;;11.50;99.90;;;;;;4969564;28;20493;-69
2023/10/02 02:34:48;;;;;;;16.33;7.70;;;11.50;99.90;;;;;;4969213;28;20498;-69
2023/10/02 02:37:28;;;;;;;20.07;8.60;;;11.50;99.90;;;;;;4968543;28;20890;-68
2023/10/02 02:40:22;;;;;;;17.50;7.43;;;11.60;99.90;;;;;;4968653;28;20826;-68
2023/10/02 02:42:50;;;;;;;18.83;8.17;;;11.50;99.90;;;;;;4969476;28;20454;-68
2023/10/02 02:45:28;;;;;;;18.07;7.97;;;11.40;99.90;;;;;;4968060;28;20885;-68
2023/10/02 02:48:03;;;;;;;17.10;8.23;;;11.40;99.90;;;;;;4970198;28;21193;-68
2023/10/02 02:50:34;;;;;;;20.30;8.10;;;11.40;99.90;;;;;;4969512;28;20455;-69
2023/10/02 02:53:21;;;;;;;19.90;8.97;;;11.30;99.90;;;;;;4969122;28;20783;-68
2023/10/02 02:56:14;;;;;;;21.43;9.27;;;11.30;99.90;;;;;;4968394;28;20502;-69
2023/10/02 02:58:45;;;;;;;23.77;9.67;;;11.20;99.90;;;;;;4967286;28;20842;-67
2023/10/02 03:01:16;;;;;;;20.53;8.47;;;11.20;99.90;;;;;;4970028;28;20544;-68
2023/10/02 03:03:44;;;;;;;19.77;9.63;;;11.20;99.90;;;;;;4969450;28;20450;-68
2023/10/02 03:06:17;;;;;;;18.93;9.37;;;11.10;99.90;;;;;;4968988;28;20986;-69
2023/10/02 03:08:46;;;;;;;17.80;9.00;;;11.00;99.90;;;;;;4967509;28;20460;-68
2023/10/02 03:11:19;;;;;;;19.83;9.10;;;11.00;99.90;;;;;;4969545;28;20446;-69
2023/10/02 03:13:48;;;;;;;21.07;7.93;;;11.00;99.90;;;;;;4968977;28;20490;-69
2023/10/02 03:16:28;;;;;;;17.93;9.43;;;11.00;99.90;;;;;;4968481;28;20475;-69
2023/10/02 03:18:59;;;;;;;19.13;7.20;;;11.10;99.90;;;;;;4974489;28;20461;-68
2023/10/02 03:21:30;;;;;;;17.60;7.20;;;11.10;99.90;;;;;;4975547;28;20461;-69
2023/10/02 03:23:59;;;;;;;19.40;8.23;;;11.10;99.90;;;;;;4975419;28;20511;-69
2023/10/02 03:26:37;;;;;;;19.03;8.33;;;11.10;99.90;;;;;;4975445;28;20504;-69
2023/10/02 03:29:11;;;;;;;17.47;7.33;;;11.00;99.90;;;;;;4975323;28;20521;-69
2023/10/02 03:31:49;;;;;;;16.07;7.60;;;11.00;99.90;;;;;;4976092;28;20700;-69
2023/10/02 03:34:33;;;;;;;20.10;8.83;;;11.10;99.90;;;;;;4975419;28;20482;-69
2023/10/02 03:37:14;;;;;;;15.97;7.17;;;11.10;99.90;;;;;;4975296;28;20466;-69
2023/10/02 03:42:32;;;;;;;16.43;7.57;;;11.00;99.90;;;;;;4962732;28;20460;-68
2023/10/02 03:45:04;;;;;;;17.70;7.90;;;10.90;99.90;;;;;;4974839;28;20989;-69
2023/10/02 03:47:34;;;;;;;17.27;7.83;;;11.00;99.90;;;;;;4975080;28;21025;-68
2023/10/02 03:50:10;;;;;;;18.37;8.97;;;10.90;99.90;;;;;;4976011;28;20460;-68
2023/10/02 03:52:41;;;;;;;17.30;7.33;;;11.00;99.90;;;;;;4971955;28;20552;-69
2023/10/02 03:55:17;;;;;;;16.10;7.17;;;10.90;99.90;;;;;;4973058;28;20485;-69
2023/10/02 03:57:50;;;;;;;17.23;8.03;;;10.80;99.90;;;;;;4975633;28;20497;-68
2023/10/02 04:00:22;;;;;;;15.37;7.10;;;10.80;99.90;;;;;;4975505;28;20462;-69
2023/10/02 04:02:53;;;;;;;19.60;7.83;;;10.70;99.90;;;;;;4973836;28;20470;-69
2023/10/02 04:05:32;;;;;;;16.07;7.07;;;10.70;99.90;;;;;;4974950;28;20472;-68
2023/10/02 04:08:21;;;;;;;18.50;7.83;;;10.60;99.90;;;;;;4975710;28;20819;-68
2023/10/02 04:11:02;;;;;;;16.57;8.10;;;10.50;99.90;;;;;;4975309;28;20489;-69
2023/10/02 04:13:39;;;;;;;17.00;6.80;;;10.70;99.90;;;;;;4975191;28;20467;-69
2023/10/02 04:19:00;;;;;;;17.80;7.77;;;10.90;99.90;;;;;;4975638;28;20958;-69
2023/10/02 04:21:29;;;;;;;15.77;6.93;;;10.80;99.90;;;;;;4975654;28;20443;-68
2023/10/02 04:23:58;;;;;;;16.60;7.23;;;10.80;99.90;;;;;;4975315;28;20549;-69
2023/10/02 04:26:31;;;;;;;17.93;7.90;;;10.70;99.90;;;;;;4975099;28;20479;-69
2023/10/02 04:29:09;;;;;;;21.60;8.70;;;10.60;99.90;;;;;;4973583;28;20455;-69
2023/10/02 04:31:42;;;;;;;20.50;7.50;;;10.60;99.90;;;;;;4971617;28;20946;-69
2023/10/02 04:34:23;;;;;;;17.33;8.07;;;10.70;99.90;;;;;;4971423;28;20495;-68
2023/10/02 04:36:52;;;;;;;17.70;8.93;;;10.60;99.90;;;;;;4971547;28;20487;-69
2023/10/02 04:42:15;;;;;;;20.20;8.00;;;10.50;99.90;;;;;;4971592;28;20453;-68
2023/10/02 04:44:45;;;;;;;17.50;7.60;;;10.50;99.90;;;;;;4970945;28;21005;-69
2023/10/02 04:47:17;;;;;;;18.43;8.07;;;10.40;99.90;;;;;;4970894;28;20457;-68
2023/10/02 04:52:59;;;;;;;18.40;8.07;;;10.50;99.90;;;;;;4971529;28;20451;-69
2023/10/02 04:55:31;;;;;;;19.60;8.30;;;10.40;99.90;;;;;;4969855;28;20489;-69
2023/10/02 04:58:08;;;;;;;16.40;8.00;;;10.40;99.90;;;;;;4970176;28;20473;-69
2023/10/02 05:01:00;;;;;;;17.10;7.50;;;10.30;99.90;;;;;;4971061;28;20446;-69
2023/10/02 05:03:28;;;;;;;18.93;10.87;;;10.30;99.90;;;;;;4970597;28;20460;-69
2023/10/02 05:05:58;;;;;;;17.63;7.70;;;10.30;99.90;;;;;;4971183;28;20479;-68
2023/10/02 05:08:33;;;;;;;20.17;9.33;;;10.20;99.90;;;;;;4971456;28;20535;-69
2023/10/02 05:11:23;;;;;;;23.43;8.60;;;10.20;99.90;;;;;;4970506;28;20464;-69
2023/10/02 05:13:59;;;;;;;18.40;7.87;;;10.30;99.90;;;;;;4971488;28;20979;-69
2023/10/02 05:16:32;;;;;;;19.03;8.10;;;10.30;99.90;;;;;;4971115;28;20546;-68
2023/10/02 05:19:04;;;;;;;19.70;9.00;;;10.20;99.90;;;;;;4971235;28;20459;-68
2023/10/02 05:21:39;;;;;;;18.37;8.83;;;10.20;99.90;;;;;;4970474;28;21348;-68
2023/10/02 05:24:11;;;;;;;24.33;9.10;;;10.10;99.90;;;;;;4971095;28;20468;-67
2023/10/02 05:26:41;;;;;;;20.80;9.70;;;10.20;99.90;;;;;;4970912;28;20821;-68
2023/10/02 05:29:12;;;;;;;18.90;9.47;;;10.20;99.90;;;;;;4970887;28;20457;-68
2023/10/02 05:31:41;;;;;;;19.93;8.50;;;10.20;99.90;;;;;;4970694;28;20453;-67
2023/10/02 05:34:21;;;;;;;16.90;8.83;;;10.20;99.90;;;;;;4969486;28;20487;-68
2023/10/02 05:37:11;;;;;;;19.33;7.40;;;10.20;99.90;;;;;;4969774;28;20483;-69
2023/10/02 05:39:40;;;;;;;17.20;7.87;;;10.20;99.90;;;;;;4970709;28;20457;-69
2023/10/02 05:42:13;;;;;;;20.23;8.30;;;10.20;99.90;;;;;;4969801;28;20901;-69
2023/10/02 05:44:42;;;;;;;19.00;9.83;;;10.30;99.90;;;;;;4970262;28;20456;-69
2023/10/02 05:47:15;;;;;;;19.20;8.90;;;10.30;99.90;;;;;;4970262;28;20527;-69
2023/10/02 05:49:48;;;;;;;14.60;7.97;;;10.30;99.90;;;;;;4966817;28;20452;-69
2023/10/02 05:52:19;;;;;;;16.63;7.93;;;10.40;99.90;;;;;;4964354;28;20457;-70
2023/10/02 05:54:53;;;;;;;17.47;7.80;;;10.50;99.90;;;;;;4968867;28;21089;-69
2023/10/02 05:57:22;;;;;;;18.27;7.80;;;10.50;99.90;;;;;;4969898;28;20905;-70
2023/10/02 05:59:54;;;;;;;20.83;8.90;;;10.40;99.90;;;;;;4969485;28;20454;-70
2023/10/02 06:02:24;;;;;;;18.53;9.17;;;10.50;99.90;;;;;;4970588;28;20460;-69
2023/10/02 06:05:07;;;;;;;16.77;8.47;;;10.40;99.90;;;;;;4967850;28;20480;-69
2023/10/02 06:07:43;;;;;;;18.47;8.57;;;10.50;99.90;;;;;;4971095;28;21036;-69
2023/10/02 06:10:26;;;;;;;15.97;7.53;;;10.60;99.90;;;;;;4970046;28;20522;-69
2023/10/02 06:13:03;;;;;;;15.90;7.57;;;10.70;99.90;;;;;;4970457;28;20448;-69
2023/10/02 06:15:44;;;;;;;18.67;9.60;;;10.70;99.90;;;;;;4970161;28;20494;-69
2023/10/02 06:18:24;;;;;;;18.93;9.20;;;10.70;99.90;;;;;;4969320;28;20948;-69
2023/10/02 06:21:00;;;;;;;18.63;9.50;;;10.80;99.90;;;;;;4967892;28;20485;-68
2023/10/02 06:23:37;;;;;;;19.93;9.37;;;11.00;99.90;;;;;;4970352;28;20542;-69
2023/10/02 06:26:06;;;;;;;20.40;8.43;;;11.10;99.90;;;;;;4969769;28;20879;-69
2023/10/02 06:28:35;;;;;;;19.13;9.93;;;11.20;99.90;;;;;;4968991;28;20452;-70
2023/10/02 06:31:06;;;;;;;20.17;8.93;;;11.30;99.90;;;;;;4969952;28;20462;-68
2023/10/02 06:33:36;;;;;;;19.23;8.70;;;11.40;99.90;;;;;;4965394;28;20549;-68
2023/10/02 06:36:07;;;;;;;18.50;8.50;;;11.50;99.90;;;;;;4969131;28;20486;-69
2023/10/02 06:38:36;;;;;;;21.70;9.93;;;11.70;99.90;;;;;;4964895;28;20494;-69
2023/10/02 06:41:09;;;;;;;17.67;8.73;;;11.80;99.90;;;;;;4969239;28;20460;-69
2023/10/02 06:43:37;;;;;;;21.90;9.67;;;11.90;99.90;;;;;;4969340;28;20463;-68
2023/10/02 06:46:13;;;;;;;19.87;9.70;;;12.10;99.90;;;;;;4969287;28;20499;-69
2023/10/02 06:48:43;;;;;;;21.20;9.43;;;12.20;99.90;;;;;;4969678;28;20518;-68
2023/10/02 06:51:13;;;;;;;18.60;8.83;;;12.40;99.90;;;;;;4970677;28;20452;-68
2023/10/02 06:53:42;;;;;;;17.17;9.07;;;12.40;99.90;;;;;;4968903;28;21063;-69
2023/10/02 06:56:12;;;;;;;22.77;9.50;;;12.60;99.90;;;;;;4969434;28;20479;-69
2023/10/02 06:58:49;;;;;;;18.90;8.60;;;12.80;99.90;;;;;;4969903;28;20968;-69
2023/10/02 07:01:19;;;;;;;18.33;9.10;;;12.80;99.90;;;;;;4968910;28;20997;-69
2023/10/02 07:03:50;;;;;;;20.60;8.73;;;12.90;99.90;;;;;;4969876;28;20552;-69
2023/10/02 07:06:21;;;;;;;17.13;8.10;;;13.00;99.90;;;;;;4968600;28;21089;-69
2023/10/02 07:09:09;;;;;;;19.57;9.03;;;13.10;99.90;;;;;;4971841;28;20462;-69
2023/10/02 07:11:39;;;;;;;20.00;9.20;;;13.20;99.90;;;;;;4970347;28;21100;-69
2023/10/02 07:14:07;;;;;;;15.87;7.87;;;13.40;99.90;;;;;;4970336;28;20526;-70
2023/10/02 07:16:35;;;;;;;19.47;10.23;;;13.50;99.90;;;;;;4969852;28;20491;-69
2023/10/02 07:19:04;;;;;;;20.30;9.70;;;13.70;99.90;;;;;;4969260;28;20475;-69
2023/10/02 07:21:35;;;;;;;17.90;8.30;;;13.70;99.90;;;;;;4968311;28;20493;-68
2023/10/02 07:24:21;;;;;;;17.87;8.03;;;13.90;99.90;;;;;;4968771;28;20453;-69
2023/10/02 07:26:51;;;;;;;17.60;8.00;;;14.00;99.90;;;;;;4969098;28;20483;-69
2023/10/02 07:29:19;;;;;;;15.13;7.90;;;14.20;99.90;;;;;;4968546;28;20515;-67
2023/10/02 07:31:47;;;;;;;16.90;8.87;;;14.30;99.90;;;;;;4968869;28;20561;-68
2023/10/02 07:34:25;;;;;;;16.80;8.27;;;14.50;99.90;;;;;;4968910;28;20549;-68
2023/10/02 07:36:55;;;;;;;17.27;7.10;;;14.70;99.90;;;;;;4966484;28;20489;-69
2023/10/02 07:39:35;;;;;;;20.23;7.97;;;14.80;99.90;;;;;;4968634;28;20450;-70
2023/10/02 07:42:04;;;;;;;17.30;8.43;;;14.90;99.90;;;;;;4969257;28;20887;-69
2023/10/02 07:44:37;;;;;;;16.53;7.53;;;15.10;99.90;;;;;;4968624;28;20490;-69
2023/10/02 07:47:11;;;;;;;17.10;8.20;;;15.30;99.90;;;;;;4968012;28;20455;-69
2023/10/02 07:49:40;;;;;;;16.70;7.50;;;15.40;99.90;;;;;;4968618;28;20529;-69
2023/10/02 07:52:11;;;;;;;20.20;8.73;;;15.60;99.90;;;;;;4968763;28;20450;-68
2023/10/02 07:54:48;;;;;;;18.70;9.47;;;15.60;99.90;;;;;;4967854;28;20518;-69
2023/10/02 07:57:19;;;;;;;21.23;7.83;;;15.80;99.90;;;;;;4967896;28;20479;-70
2023/10/02 07:59:49;;;;;;;17.23;7.80;;;15.90;99.90;;;;;;4968651;28;20459;-68
2023/10/02 08:02:22;;;;;;;18.77;8.88;;;16.00;99.90;;;;;;4968701;28;20528;-68
2023/10/02 08:04:52;;;;;;;17.80;7.77;;;16.10;99.90;;;;;;4971105;28;20216;-68
2023/10/02 08:07:24;;;;;;;17.53;8.40;;;16.30;99.90;;;;;;4972051;28;20443;-69
2023/10/02 08:10:11;;;;;;;18.80;8.07;;;16.50;99.90;;;;;;4972045;28;20542;-69
2023/10/02 08:12:54;;;;;;;18.83;8.70;;;16.60;99.90;;;;;;4972626;28;20455;-70
2023/10/02 08:15:32;;;;;;;16.40;8.00;;;16.70;99.90;;;;;;4972790;28;20467;-69
2023/10/02 08:18:03;;;;;;;17.17;8.07;;;16.90;99.90;;;;;;4972528;28;20482;-71
2023/10/02 08:20:37;;;;;;;17.40;8.63;;;17.00;99.90;;;;;;4972698;28;20447;-70
2023/10/02 08:23:22;;;;;;;17.30;7.77;;;17.10;99.90;;;;;;4972636;28;20462;-68
2023/10/02 08:26:04;;;;;;;16.90;7.77;;;17.30;99.90;;;;;;4969720;28;20541;-70
2023/10/02 08:28:53;;;;;;;16.50;7.40;;;17.50;99.90;;;;;;4971144;28;20447;-68
2023/10/02 08:31:27;;;;;;;18.97;8.10;;;17.60;99.90;;;;;;4971642;28;20459;-69
2023/10/02 08:34:05;;;;;;;20.17;7.93;;;17.80;99.90;;;;;;4971743;28;20836;-68
2023/10/02 08:36:41;;;;;;;16.33;7.50;;;18.10;99.90;;;;;;4970939;28;20880;-69
2023/10/02 08:39:11;;;;;;;19.80;8.50;;;18.30;99.90;;;;;;4971042;28;20554;-68
2023/10/02 08:41:44;;;;;;;18.73;8.10;;;18.50;99.90;;;;;;4949698;29;20585;-69
2023/10/02 08:44:13;;;;;;;16.30;7.80;;;18.60;99.90;;;;;;4943380;29;20573;-69
2023/10/02 08:46:43;;;;;;;19.83;9.33;;;18.80;99.90;;;;;;4949412;29;20500;-69
2023/10/02 08:49:13;;;;;;;19.77;8.20;;;19.10;99.90;;;;;;4948981;29;20532;-70
2023/10/02 08:51:48;;;;;;;20.50;8.70;;;19.50;99.90;;;;;;4946739;29;20452;-70
2023/10/02 08:54:19;;;;;;;18.47;9.30;;;19.90;99.90;;;;;;4939964;29;20745;-70
2023/10/02 08:57:06;;;;;;;18.30;8.90;;;20.10;99.90;;;;;;4948407;29;20541;-69
2023/10/02 08:59:38;;;;;;;17.90;9.27;;;20.40;99.90;;;;;;4956015;28;20446;-70
2023/10/02 09:02:11;;;;;;;18.07;9.17;;;20.50;99.90;;;;;;4971119;28;20459;-69
2023/10/02 09:04:40;;;;;;;16.60;8.10;;;20.70;99.90;;;;;;4970551;28;20464;-70
2023/10/02 09:07:22;;;;;;;18.90;9.07;;;20.80;99.90;;;;;;4971172;28;20497;-69
2023/10/02 09:10:12;;;;;;;17.60;8.60;;;21.10;99.90;;;;;;4967726;28;20451;-69
2023/10/02 09:12:48;;;;;;;17.10;8.13;;;21.30;99.90;;;;;;4968388;28;20447;-69
2023/10/02 09:15:27;;;;;;;19.67;9.03;;;21.40;99.90;;;;;;4970740;28;20475;-69
2023/10/02 09:18:02;;;;;;;19.00;8.50;;;21.60;99.90;;;;;;4970551;28;20494;-69
2023/10/02 09:20:53;;;;;;;17.20;8.40;;;21.70;99.90;;;;;;4969715;28;20823;-69
2023/10/02 09:23:23;;;;;;;19.00;8.83;;;22.20;99.90;;;;;;4967255;28;20477;-70
2023/10/02 09:26:16;;;;;;;19.57;9.93;;;22.30;99.90;;;;;;4969950;28;20472;-69
2023/10/02 09:28:58;;;;;;;18.40;8.50;;;22.60;99.90;;;;;;4970875;28;20443;-69
2023/10/02 09:31:28;;;;;;;22.20;9.00;;;22.80;99.90;;;;;;4969901;28;20490;-70
2023/10/02 09:33:56;;;;;;;18.57;9.20;;;23.20;99.90;;;;;;4970329;28;20457;-69
2023/10/02 09:36:52;;;;;;;18.13;9.27;;;23.30;99.90;;;;;;4970138;28;20462;-70
2023/10/02 09:39:41;;;;;;;16.17;8.40;;;23.60;99.90;;;;;;4967145;28;20947;-70
2023/10/02 09:42:11;;;;;;;17.80;8.20;;;23.80;99.90;;;;;;4970724;28;20460;-69
2023/10/02 09:44:42;;;;;;;20.70;9.17;;;24.10;99.90;;;;;;4970575;28;20514;-69
2023/10/02 09:47:11;;;;;;;17.80;8.93;;;24.30;99.90;;;;;;4970282;28;20443;-70
2023/10/02 09:49:48;;;;;;;18.83;9.47;;;24.60;99.90;;;;;;4969999;28;20455;-70
2023/10/02 09:52:33;;;;;;;20.07;9.57;;;25.00;97.40;;;;;;4969155;28;20466;-68
2023/10/02 09:55:09;;;;;;;18.20;8.23;;;25.30;95.50;;;;;;4968793;28;20471;-70
2023/10/02 09:57:49;;;;;;;18.47;9.70;;;25.80;92.30;;;;;;4966938;28;20950;-70
2023/10/02 10:03:30;;;;;;;19.07;10.10;;;26.50;90.30;;;;;;4967537;28;20857;-69
2023/10/02 10:06:16;;;;;;;17.77;9.13;;;26.70;86.70;;;;;;4967684;28;20475;-70
2023/10/02 10:09:30;;;;;;;23.27;10.37;;;26.80;83.80;;;;;;4967430;28;20459;-70
2023/10/02 10:12:21;;;;;;;20.23;10.10;;;27.00;85.40;;;;;;4968692;28;21221;-70
2023/10/02 10:14:54;;;;;;;21.77;10.07;;;27.20;84.60;;;;;;4967425;28;20486;-70
2023/10/02 10:17:56;;;;;;;18.30;9.53;;;27.50;81.70;;;;;;4967952;28;20607;-70
2023/10/02 10:20:28;;;;;;;19.50;10.00;;;27.80;79.50;;;;;;4969961;28;20459;-70
2023/10/02 10:22:55;;;;;;;22.87;10.13;;;28.10;77.30;;;;;;4969499;28;20459;-69
2023/10/02 10:25:44;;;;;;;22.20;10.40;;;28.30;77.10;;;;;;4969149;28;20904;-70
2023/10/02 10:28:27;;;;;;;17.27;8.83;;;28.80;72.20;;;;;;4968761;28;20475;-70
2023/10/02 10:31:01;;;;;;;20.63;10.70;;;29.10;69.70;;;;;;4966446;28;20542;-70
2023/10/02 10:33:36;;;;;;;18.30;10.63;;;29.40;67.00;;;;;;4968477;28;20447;-70
2023/10/02 10:36:46;;;;;;;21.50;11.90;;;29.70;65.60;;;;;;4969584;28;20543;-70
2023/10/02 10:40:17;;;;;;;18.83;10.87;;;29.90;64.80;;;;;;4959663;28;20487;-69
2023/10/02 10:42:59;;;;;;;19.07;10.30;;;30.40;61.80;;;;;;4969853;28;20458;-70
2023/10/02 10:45:30;;;;;;;18.73;10.03;;;30.80;58.20;;;;;;4968943;28;20565;-70
2023/10/02 10:47:59;;;;;;;17.43;9.80;;;30.90;59.20;;;;;;4968953;28;20455;-68
2023/10/02 10:50:32;;;;;;;21.57;10.70;;;31.10;57.20;;;;;;4969100;28;20479;-70
2023/10/02 10:53:25;;;;;;;21.70;11.80;;;31.10;55.00;;;;;;4968246;28;20535;-69
2023/10/02 10:55:54;;;;;;;17.63;9.80;;;31.20;56.20;;;;;;4968663;28;20530;-69
2023/10/02 10:58:31;;;;;;;19.93;10.53;;;31.50;54.10;;;;;;4969255;28;20557;-70
2023/10/02 11:00:59;;;;;;;19.27;10.87;;;31.50;52.60;;;;;;4968557;28;20550;-69
2023/10/02 11:03:30;;;;;;;21.20;11.47;;;31.10;53.20;;;;;;4969330;28;20458;-70
2023/10/02 11:06:03;;;;;;;21.13;11.47;;;31.20;52.80;;;;;;4968820;28;20918;-69
2023/10/02 11:08:37;;;;;;;21.13;10.60;;;31.20;52.70;;;;;;4969555;28;20538;-68
2023/10/02 11:11:11;;;;;;;18.07;9.50;;;31.40;52.30;;;;;;4969304;28;20466;-69
2023/10/02 11:13:54;;;;;;;20.30;10.40;;;31.40;51.20;;;;;;4968793;28;20451;-68
2023/10/02 11:16:32;;;;;;;22.50;11.00;;;30.80;52.90;;;;;;4968754;28;20478;-68
2023/10/02 11:19:25;;;;;;;19.20;10.30;;;31.40;52.50;;;;;;4968991;28;20478;-70
2023/10/02 11:22:14;;;;;;;21.63;11.50;;;31.80;50.20;;;;;;4969025;28;20451;-68
2023/10/02 11:24:44;;;;;;;21.80;11.70;;;31.60;52.10;;;;;;4965020;28;20543;-69
2023/10/02 11:27:15;;;;;;;21.13;10.93;;;32.10;49.80;;;;;;4968959;28;20962;-69
2023/10/02 11:29:45;;;;;;;21.33;11.70;;;32.30;49.60;;;;;;4969661;28;20444;-69
2023/10/02 11:32:21;;;;;;;20.53;11.10;;;31.40;50.40;;;;;;4968340;28;20567;-69
2023/10/02 11:34:58;;;;;;;20.27;11.00;;;31.50;50.30;;;;;;4967321;28;20548;-69
2023/10/02 11:37:28;;;;;;;20.80;10.80;;;32.30;50.00;;;;;;4967895;28;20453;-69
2023/10/02 11:39:57;;;;;;;21.60;11.63;;;33.00;47.40;;;;;;4970761;28;20911;-69
2023/10/02 11:42:25;;;;;;;21.90;11.87;;;33.80;46.30;;;;;;4971794;28;20479;-69
2023/10/02 11:44:54;;;;;;;20.83;11.90;;;33.80;44.80;;;;;;4972110;28;21081;-69
2023/10/02 11:47:24;;;;;;;20.83;12.60;;;34.10;45.90;;;;;;4971376;28;20462;-70
2023/10/02 11:49:53;;;;;;;20.50;11.70;;;34.50;45.70;;;;;;4972187;28;20454;-70
2023/10/02 11:52:21;;;;;;;20.70;12.17;;;35.10;44.50;;;;;;4972818;28;20546;-71
2023/10/02 11:54:49;;;;;;;20.47;11.60;;;35.60;43.60;;;;;;4972323;28;20478;-70
2023/10/02 11:57:18;;;;;;;23.53;13.43;;;35.80;43.10;;;;;;4972564;28;20842;-70
2023/10/02 11:59:47;;;;;;;22.97;13.83;;;36.20;39.00;;;;;;4972618;28;20860;-69
2023/10/02 12:02:17;;;;;;;25.87;13.97;;;36.00;40.20;;;;;;4972926;28;20551;-70
2023/10/02 12:04:46;;;;;;;25.93;13.30;;;36.20;38.10;;;;;;4972116;28;20538;-70
2023/10/02 12:07:16;;;;;;;26.00;15.03;;;35.90;37.70;;;;;;4972534;28;20466;-70
2023/10/02 12:09:46;;;;;;;25.90;14.93;;;36.20;38.80;;;;;;4971965;28;20447;-70
2023/10/02 12:12:14;;;;;;;27.67;16.40;;;36.50;35.20;;;;;;4971985;28;20486;-69
2023/10/02 12:14:43;;;;;;;30.80;16.90;;;36.70;34.90;;;;;;4972667;28;20467;-69
2023/10/02 12:17:14;;;;;;;25.87;15.23;;;36.70;35.50;;;;;;4971513;28;20447;-70
2023/10/02 12:19:43;;;;;;;25.63;15.20;;;36.90;37.30;;;;;;4971843;28;20483;-69
2023/10/02 12:22:11;;;;;;;26.20;15.90;;;37.50;34.50;;;;;;4971665;28;20545;-71
2023/10/02 12:24:40;;;;;;;24.63;13.80;;;37.80;34.30;;;;;;4972815;28;20845;-71
2023/10/02 12:27:11;;;;;;;28.93;17.10;;;38.20;35.40;;;;;;4971689;28;20502;-70
2023/10/02 12:29:40;;;;;;;25.00;15.30;;;38.60;34.10;;;;;;4971500;28;20451;-70
2023/10/02 12:32:09;;;;;;;26.17;15.67;;;39.30;30.70;;;;;;4971324;28;20545;-69
2023/10/02 12:34:39;;;;;;;28.20;16.20;;;38.90;29.60;;;;;;4970609;28;20939;-71
2023/10/02 12:37:07;;;;;;;27.60;15.70;;;38.60;29.90;;;;;;4971876;28;20458;-70
2023/10/02 12:39:35;;;;;;;28.90;16.43;;;38.70;31.80;;;;;;4966042;28;20489;-70
2023/10/02 12:42:05;;;;;;;25.20;15.57;;;38.40;30.80;;;;;;4971680;28;21043;-70
2023/10/02 12:44:36;;;;;;;22.80;14.00;;;38.50;33.40;;;;;;4971156;28;20545;-68
2023/10/02 12:47:05;;;;;;;23.67;14.07;;;38.80;32.30;;;;;;4970949;28;20479;-70
2023/10/02 12:49:35;;;;;;;21.83;13.33;;;37.90;33.60;;;;;;4971020;28;20462;-69
2023/10/02 12:52:05;;;;;;;23.57;14.10;;;37.00;36.50;;;;;;4970553;28;20950;-71
2023/10/02 12:54:33;;;;;;;25.40;14.50;;;37.10;33.60;;;;;;4970580;28;20487;-70
2023/10/02 12:57:01;;;;;;;25.87;15.50;;;37.00;33.80;;;;;;4971479;28;20464;-70
2023/10/02 12:59:30;;;;;;;22.87;13.33;;;36.90;33.00;;;;;;4970973;28;20483;-70
2023/10/02 13:01:58;;;;;;;27.73;14.93;;;35.40;34.20;;;;;;4970995;28;20462;-71
2023/10/02 13:04:26;;;;;;;28.10;15.60;;;35.30;36.90;;;;;;4970447;28;22352;-70
2023/10/02 13:06:54;;;;;;;26.70;14.47;;;35.40;35.00;;;;;;4970626;28;20999;-67
2023/10/02 13:09:27;;;;;;;26.80;15.10;;;35.40;36.30;;;;;;4966697;28;20608;-69
2023/10/02 13:11:55;;;;;;;27.67;15.40;;;35.20;36.40;;;;;;4971051;28;20479;-69
2023/10/02 13:14:23;;;;;;;26.30;15.57;;;34.50;39.00;;;;;;4971043;28;20452;-68
2023/10/02 13:16:53;;;;;;;27.20;16.33;;;33.70;39.80;;;;;;4970913;28;20471;-67
2023/10/02 13:19:21;;;;;;;28.40;16.70;;;32.90;41.60;;;;;;4963499;28;20506;-67
2023/10/02 13:21:52;;;;;;;25.33;15.30;;;31.90;39.40;;;;;;4970504;28;20452;-69
2023/10/02 13:24:23;;;;;;;26.33;14.47;;;31.00;41.40;;;;;;4970887;28;20861;-68
2023/10/02 13:26:52;;;;;;;25.93;14.23;;;30.30;43.80;;;;;;4970163;28;20456;-69